sensor_id;sensor_type;location;lat;lon;timestamp;P1;durP1;ratioP1;P2;durP2;ratioP2
9461;SDS011;4769;42.660;23.262;2023-06-04T00:00:08;10.68;;;9.68;;
9461;SDS011;4769;42.660;23.262;2023-06-04T00:02:35;12.55;;;8.98;;
9461;SDS011;4769;42.660;23.262;2023-06-04T00:05:00;10.55;;;9.52;;
9461;SDS011;4769;42.660;23.262;2023-06-04T00:07:26;11.32;;;10.23;;
9461;SDS011;4769;42.660;23.262;2023-06-04T00:09:52;10.43;;;9.50;;
9461;SDS011;4769;42.660;23.262;2023-06-04T00:12:21;10.30;;;9.40;;
9461;SDS011;4769;42.660;23.262;2023-06-04T00:14:46;10.10;;;9.23;;
9461;SDS011;4769;42.660;23.262;2023-06-04T00:17:12;11.13;;;10.10;;
9461;SDS011;4769;42.660;23.262;2023-06-04T00:19:38;11.82;;;10.70;;
9461;SDS011;4769;42.660;23.262;2023-06-04T00:22:05;11.15;;;10.15;;
9461;SDS011;4769;42.660;23.262;2023-06-04T00:24:30;11.13;;;10.13;;
9461;SDS011;4769;42.660;23.262;2023-06-04T00:26:56;11.00;;;9.90;;
9461;SDS011;4769;42.660;23.262;2023-06-04T00:29:24;10.35;;;9.45;;
9461;SDS011;4769;42.660;23.262;2023-06-04T00:31:50;11.45;;;10.25;;
9461;SDS011;4769;42.660;23.262;2023-06-04T00:34:16;11.75;;;10.55;;
9461;SDS011;4769;42.660;23.262;2023-06-04T00:36:42;12.13;;;10.63;;
9461;SDS011;4769;42.660;23.262;2023-06-04T00:39:08;11.75;;;10.55;;
9461;SDS011;4769;42.660;23.262;2023-06-04T00:41:34;11.00;;;9.93;;
9461;SDS011;4769;42.660;23.262;2023-06-04T00:44:00;10.15;;;9.15;;
9461;SDS011;4769;42.660;23.262;2023-06-04T00:46:28;11.77;;;10.40;;
9461;SDS011;4769;42.660;23.262;2023-06-04T00:48:54;11.95;;;10.75;;
9461;SDS011;4769;42.660;23.262;2023-06-04T00:51:20;12.68;;;11.38;;
9461;SDS011;4769;42.660;23.262;2023-06-04T00:53:47;11.43;;;10.43;;
9461;SDS011;4769;42.660;23.262;2023-06-04T00:56:13;11.48;;;10.38;;
9461;SDS011;4769;42.660;23.262;2023-06-04T00:58:39;11.27;;;10.23;;
9461;SDS011;4769;42.660;23.262;2023-06-04T01:01:05;11.90;;;10.90;;
9461;SDS011;4769;42.660;23.262;2023-06-04T01:03:38;11.70;;;10.60;;
9461;SDS011;4769;42.660;23.262;2023-06-04T01:06:13;10.70;;;9.60;;
9461;SDS011;4769;42.660;23.262;2023-06-04T01:08:43;11.40;;;10.20;;
9461;SDS011;4769;42.660;23.262;2023-06-04T01:11:09;12.57;;;9.68;;
9461;SDS011;4769;42.660;23.262;2023-06-04T01:13:34;11.38;;;10.27;;
9461;SDS011;4769;42.660;23.262;2023-06-04T01:16:00;13.60;;;11.63;;
9461;SDS011;4769;42.660;23.262;2023-06-04T01:18:26;12.73;;;11.50;;
9461;SDS011;4769;42.660;23.262;2023-06-04T01:20:55;14.13;;;12.43;;
9461;SDS011;4769;42.660;23.262;2023-06-04T01:23:30;14.18;;;12.88;;
9461;SDS011;4769;42.660;23.262;2023-06-04T01:26:02;14.52;;;13.15;;
9461;SDS011;4769;42.660;23.262;2023-06-04T01:28:29;15.25;;;13.00;;
9461;SDS011;4769;42.660;23.262;2023-06-04T01:30:55;14.48;;;12.65;;
9461;SDS011;4769;42.660;23.262;2023-06-04T01:33:22;13.20;;;11.85;;
9461;SDS011;4769;42.660;23.262;2023-06-04T01:35:48;15.10;;;13.57;;
9461;SDS011;4769;42.660;23.262;2023-06-04T01:38:17;11.90;;;10.70;;
9461;SDS011;4769;42.660;23.262;2023-06-04T01:40:43;10.73;;;9.65;;
9461;SDS011;4769;42.660;23.262;2023-06-04T01:43:09;10.10;;;9.20;;
9461;SDS011;4769;42.660;23.262;2023-06-04T01:45:35;11.80;;;9.35;;
9461;SDS011;4769;42.660;23.262;2023-06-04T01:48:01;11.13;;;8.70;;
9461;SDS011;4769;42.660;23.262;2023-06-04T01:50:28;8.75;;;8.05;;
9461;SDS011;4769;42.660;23.262;2023-06-04T01:52:53;9.20;;;7.65;;
9461;SDS011;4769;42.660;23.262;2023-06-04T01:55:22;8.27;;;7.43;;
9461;SDS011;4769;42.660;23.262;2023-06-04T01:57:48;7.45;;;6.72;;
9461;SDS011;4769;42.660;23.262;2023-06-04T02:00:14;8.52;;;6.40;;
9461;SDS011;4769;42.660;23.262;2023-06-04T02:02:41;7.88;;;6.57;;
9461;SDS011;4769;42.660;23.262;2023-06-04T02:05:08;6.68;;;6.18;;
9461;SDS011;4769;42.660;23.262;2023-06-04T02:07:35;11.52;;;7.28;;
9461;SDS011;4769;42.660;23.262;2023-06-04T02:10:02;9.45;;;7.32;;
9461;SDS011;4769;42.660;23.262;2023-06-04T02:12:30;8.38;;;7.35;;
9461;SDS011;4769;42.660;23.262;2023-06-04T02:14:56;8.88;;;7.85;;
9461;SDS011;4769;42.660;23.262;2023-06-04T02:17:21;9.40;;;8.38;;
9461;SDS011;4769;42.660;23.262;2023-06-04T02:19:47;9.40;;;8.50;;
9461;SDS011;4769;42.660;23.262;2023-06-04T02:22:13;10.02;;;9.07;;
9461;SDS011;4769;42.660;23.262;2023-06-04T02:24:39;9.25;;;8.35;;
9461;SDS011;4769;42.660;23.262;2023-06-04T02:27:05;8.32;;;7.53;;
9461;SDS011;4769;42.660;23.262;2023-06-04T02:29:34;8.60;;;7.90;;
9461;SDS011;4769;42.660;23.262;2023-06-04T02:32:00;7.05;;;6.50;;
9461;SDS011;4769;42.660;23.262;2023-06-04T02:34:25;6.32;;;5.72;;
9461;SDS011;4769;42.660;23.262;2023-06-04T02:36:51;4.97;;;4.50;;
9461;SDS011;4769;42.660;23.262;2023-06-04T02:39:17;5.00;;;4.60;;
9461;SDS011;4769;42.660;23.262;2023-06-04T02:41:43;5.00;;;4.05;;
9461;SDS011;4769;42.660;23.262;2023-06-04T02:44:09;5.60;;;4.55;;
9461;SDS011;4769;42.660;23.262;2023-06-04T02:46:37;6.07;;;4.10;;
9461;SDS011;4769;42.660;23.262;2023-06-04T02:49:03;4.57;;;4.05;;
9461;SDS011;4769;42.660;23.262;2023-06-04T02:51:29;4.85;;;4.35;;
9461;SDS011;4769;42.660;23.262;2023-06-04T02:53:55;5.15;;;4.40;;
9461;SDS011;4769;42.660;23.262;2023-06-04T02:56:20;4.82;;;4.43;;
9461;SDS011;4769;42.660;23.262;2023-06-04T02:58:49;5.05;;;4.05;;
9461;SDS011;4769;42.660;23.262;2023-06-04T03:01:17;5.15;;;4.65;;
9461;SDS011;4769;42.660;23.262;2023-06-04T03:03:46;4.90;;;4.50;;
9461;SDS011;4769;42.660;23.262;2023-06-04T03:06:11;4.18;;;3.88;;
9461;SDS011;4769;42.660;23.262;2023-06-04T03:08:37;4.22;;;3.83;;
9461;SDS011;4769;42.660;23.262;2023-06-04T03:11:03;4.65;;;4.00;;
9461;SDS011;4769;42.660;23.262;2023-06-04T03:13:29;4.57;;;3.55;;
9461;SDS011;4769;42.660;23.262;2023-06-04T03:15:54;4.00;;;3.70;;
9461;SDS011;4769;42.660;23.262;2023-06-04T03:18:20;5.47;;;3.95;;
9461;SDS011;4769;42.660;23.262;2023-06-04T03:20:48;4.55;;;4.03;;
9461;SDS011;4769;42.660;23.262;2023-06-04T03:23:14;4.32;;;3.85;;
9461;SDS011;4769;42.660;23.262;2023-06-04T03:25:40;5.50;;;4.00;;
9461;SDS011;4769;42.660;23.262;2023-06-04T03:28:06;6.15;;;3.22;;
9461;SDS011;4769;42.660;23.262;2023-06-04T03:30:31;3.70;;;3.40;;
9461;SDS011;4769;42.660;23.262;2023-06-04T03:32:57;3.80;;;3.50;;
9461;SDS011;4769;42.660;23.262;2023-06-04T03:35:23;4.90;;;3.13;;
9461;SDS011;4769;42.660;23.262;2023-06-04T03:37:51;4.63;;;3.35;;
9461;SDS011;4769;42.660;23.262;2023-06-04T03:40:17;3.63;;;3.33;;
9461;SDS011;4769;42.660;23.262;2023-06-04T03:42:42;4.22;;;3.40;;
9461;SDS011;4769;42.660;23.262;2023-06-04T03:45:08;3.78;;;3.45;;
9461;SDS011;4769;42.660;23.262;2023-06-04T03:47:34;4.32;;;3.92;;
9461;SDS011;4769;42.660;23.262;2023-06-04T03:50:00;4.40;;;3.70;;
9461;SDS011;4769;42.660;23.262;2023-06-04T03:52:26;4.57;;;3.83;;
9461;SDS011;4769;42.660;23.262;2023-06-04T03:54:54;4.45;;;4.05;;
9461;SDS011;4769;42.660;23.262;2023-06-04T03:57:20;4.30;;;3.90;;
9461;SDS011;4769;42.660;23.262;2023-06-04T03:59:46;4.93;;;4.07;;
9461;SDS011;4769;42.660;23.262;2023-06-04T04:02:11;4.85;;;4.45;;
9461;SDS011;4769;42.660;23.262;2023-06-04T04:04:37;5.20;;;3.80;;
9461;SDS011;4769;42.660;23.262;2023-06-04T04:07:03;5.40;;;4.30;;
9461;SDS011;4769;42.660;23.262;2023-06-04T04:09:28;6.20;;;5.60;;
9461;SDS011;4769;42.660;23.262;2023-06-04T04:11:57;6.13;;;4.88;;
9461;SDS011;4769;42.660;23.262;2023-06-04T04:14:22;6.07;;;4.80;;
9461;SDS011;4769;42.660;23.262;2023-06-04T04:16:48;7.40;;;4.85;;
9461;SDS011;4769;42.660;23.262;2023-06-04T04:19:14;6.25;;;5.10;;
9461;SDS011;4769;42.660;23.262;2023-06-04T04:21:40;7.38;;;5.13;;
9461;SDS011;4769;42.660;23.262;2023-06-04T04:24:05;6.40;;;5.22;;
9461;SDS011;4769;42.660;23.262;2023-06-04T04:26:31;6.57;;;5.13;;
9461;SDS011;4769;42.660;23.262;2023-06-04T04:28:59;6.93;;;5.30;;
9461;SDS011;4769;42.660;23.262;2023-06-04T04:31:25;5.90;;;4.80;;
9461;SDS011;4769;42.660;23.262;2023-06-04T04:33:51;9.35;;;5.47;;
9461;SDS011;4769;42.660;23.262;2023-06-04T04:36:17;7.20;;;4.63;;
9461;SDS011;4769;42.660;23.262;2023-06-04T04:38:43;8.13;;;4.60;;
9461;SDS011;4769;42.660;23.262;2023-06-04T04:41:09;4.82;;;4.30;;
9461;SDS011;4769;42.660;23.262;2023-06-04T04:43:36;6.60;;;4.82;;
9461;SDS011;4769;42.660;23.262;2023-06-04T04:46:04;6.60;;;4.47;;
9461;SDS011;4769;42.660;23.262;2023-06-04T04:48:30;5.32;;;4.40;;
9461;SDS011;4769;42.660;23.262;2023-06-04T04:50:56;7.03;;;4.93;;
9461;SDS011;4769;42.660;23.262;2023-06-04T04:53:22;5.32;;;4.38;;
9461;SDS011;4769;42.660;23.262;2023-06-04T04:55:47;6.30;;;4.72;;
9461;SDS011;4769;42.660;23.262;2023-06-04T04:58:13;6.95;;;4.75;;
9461;SDS011;4769;42.660;23.262;2023-06-04T05:00:40;7.97;;;4.90;;
9461;SDS011;4769;42.660;23.262;2023-06-04T05:03:08;7.13;;;4.90;;
9461;SDS011;4769;42.660;23.262;2023-06-04T05:05:34;6.88;;;5.13;;
9461;SDS011;4769;42.660;23.262;2023-06-04T05:08:00;7.65;;;5.15;;
9461;SDS011;4769;42.660;23.262;2023-06-04T05:10:25;5.90;;;5.30;;
9461;SDS011;4769;42.660;23.262;2023-06-04T05:12:51;10.38;;;5.45;;
9461;SDS011;4769;42.660;23.262;2023-06-04T05:15:17;7.82;;;5.15;;
9461;SDS011;4769;42.660;23.262;2023-06-04T05:17:43;5.90;;;4.88;;
9461;SDS011;4769;42.660;23.262;2023-06-04T05:20:12;8.18;;;5.30;;
9461;SDS011;4769;42.660;23.262;2023-06-04T05:22:38;5.75;;;5.18;;
9461;SDS011;4769;42.660;23.262;2023-06-04T05:25:04;6.57;;;5.03;;
9461;SDS011;4769;42.660;23.262;2023-06-04T05:27:30;5.85;;;4.65;;
9461;SDS011;4769;42.660;23.262;2023-06-04T05:29:56;5.53;;;5.00;;
9461;SDS011;4769;42.660;23.262;2023-06-04T05:32:22;6.03;;;5.45;;
9461;SDS011;4769;42.660;23.262;2023-06-04T05:34:47;6.57;;;5.28;;
9461;SDS011;4769;42.660;23.262;2023-06-04T05:37:16;7.30;;;5.40;;
9461;SDS011;4769;42.660;23.262;2023-06-04T05:39:42;7.70;;;5.68;;
9461;SDS011;4769;42.660;23.262;2023-06-04T05:42:07;7.97;;;5.97;;
9461;SDS011;4769;42.660;23.262;2023-06-04T05:44:33;11.77;;;6.20;;
9461;SDS011;4769;42.660;23.262;2023-06-04T05:46:59;7.65;;;5.85;;
9461;SDS011;4769;42.660;23.262;2023-06-04T05:49:25;11.20;;;5.72;;
9461;SDS011;4769;42.660;23.262;2023-06-04T05:51:50;10.05;;;5.57;;
9461;SDS011;4769;42.660;23.262;2023-06-04T05:54:19;7.95;;;6.18;;
9461;SDS011;4769;42.660;23.262;2023-06-04T05:56:44;7.75;;;6.10;;
9461;SDS011;4769;42.660;23.262;2023-06-04T05:59:10;10.88;;;6.07;;
9461;SDS011;4769;42.660;23.262;2023-06-04T06:01:36;8.32;;;5.72;;
9461;SDS011;4769;42.660;23.262;2023-06-04T06:04:01;7.82;;;6.15;;
9461;SDS011;4769;42.660;23.262;2023-06-04T06:06:27;7.35;;;6.40;;
9461;SDS011;4769;42.660;23.262;2023-06-04T06:08:53;12.35;;;6.88;;
9461;SDS011;4769;42.660;23.262;2023-06-04T06:11:21;13.68;;;6.93;;
9461;SDS011;4769;42.660;23.262;2023-06-04T06:13:47;12.20;;;6.93;;
9461;SDS011;4769;42.660;23.262;2023-06-04T06:16:13;9.93;;;6.65;;
9461;SDS011;4769;42.660;23.262;2023-06-04T06:18:38;9.10;;;6.97;;
9461;SDS011;4769;42.660;23.262;2023-06-04T06:21:05;9.02;;;7.15;;
9461;SDS011;4769;42.660;23.262;2023-06-04T06:23:34;11.95;;;7.35;;
9461;SDS011;4769;42.660;23.262;2023-06-04T06:26:00;9.13;;;6.63;;
9461;SDS011;4769;42.660;23.262;2023-06-04T06:28:28;9.13;;;7.35;;
9461;SDS011;4769;42.660;23.262;2023-06-04T06:30:54;11.93;;;8.23;;
9461;SDS011;4769;42.660;23.262;2023-06-04T06:33:19;12.65;;;8.32;;
9461;SDS011;4769;42.660;23.262;2023-06-04T06:35:45;10.70;;;8.77;;
9461;SDS011;4769;42.660;23.262;2023-06-04T06:38:11;13.35;;;9.20;;
9461;SDS011;4769;42.660;23.262;2023-06-04T06:40:37;11.18;;;9.70;;
9461;SDS011;4769;42.660;23.262;2023-06-04T06:43:02;12.10;;;9.32;;
9461;SDS011;4769;42.660;23.262;2023-06-04T06:45:31;17.23;;;9.75;;
9461;SDS011;4769;42.660;23.262;2023-06-04T06:47:56;9.63;;;8.55;;
9461;SDS011;4769;42.660;23.262;2023-06-04T06:50:22;9.55;;;8.30;;
9461;SDS011;4769;42.660;23.262;2023-06-04T06:52:48;11.80;;;8.57;;
9461;SDS011;4769;42.660;23.262;2023-06-04T06:55:14;14.63;;;8.98;;
9461;SDS011;4769;42.660;23.262;2023-06-04T06:57:40;14.13;;;9.10;;
9461;SDS011;4769;42.660;23.262;2023-06-04T07:00:06;13.32;;;8.93;;
9461;SDS011;4769;42.660;23.262;2023-06-04T07:02:35;11.48;;;8.88;;
9461;SDS011;4769;42.660;23.262;2023-06-04T07:05:01;12.27;;;9.32;;
9461;SDS011;4769;42.660;23.262;2023-06-04T07:07:27;9.68;;;8.77;;
9461;SDS011;4769;42.660;23.262;2023-06-04T07:09:53;11.68;;;8.45;;
9461;SDS011;4769;42.660;23.262;2023-06-04T07:12:18;11.07;;;8.15;;
9461;SDS011;4769;42.660;23.262;2023-06-04T07:14:44;8.60;;;7.72;;
9461;SDS011;4769;42.660;23.262;2023-06-04T07:17:10;8.75;;;7.53;;
9461;SDS011;4769;42.660;23.262;2023-06-04T07:19:38;12.27;;;7.93;;
9461;SDS011;4769;42.660;23.262;2023-06-04T07:22:04;10.63;;;8.15;;
9461;SDS011;4769;42.660;23.262;2023-06-04T07:24:30;8.63;;;7.32;;
9461;SDS011;4769;42.660;23.262;2023-06-04T07:26:55;9.73;;;7.63;;
9461;SDS011;4769;42.660;23.262;2023-06-04T07:29:21;8.73;;;7.30;;
9461;SDS011;4769;42.660;23.262;2023-06-04T07:31:47;12.13;;;7.43;;
9461;SDS011;4769;42.660;23.262;2023-06-04T07:34:13;11.02;;;7.90;;
9461;SDS011;4769;42.660;23.262;2023-06-04T07:36:41;10.38;;;7.90;;
9461;SDS011;4769;42.660;23.262;2023-06-04T07:39:07;9.07;;;8.10;;
9461;SDS011;4769;42.660;23.262;2023-06-04T07:41:32;9.85;;;7.72;;
9461;SDS011;4769;42.660;23.262;2023-06-04T07:43:58;9.65;;;7.80;;
9461;SDS011;4769;42.660;23.262;2023-06-04T07:46:24;12.27;;;7.68;;
9461;SDS011;4769;42.660;23.262;2023-06-04T07:48:49;10.55;;;7.72;;
9461;SDS011;4769;42.660;23.262;2023-06-04T07:51:15;9.48;;;8.50;;
9461;SDS011;4769;42.660;23.262;2023-06-04T07:53:43;11.20;;;8.77;;
9461;SDS011;4769;42.660;23.262;2023-06-04T07:56:09;9.88;;;8.40;;
9461;SDS011;4769;42.660;23.262;2023-06-04T07:58:35;9.13;;;8.23;;
9461;SDS011;4769;42.660;23.262;2023-06-04T08:01:00;9.95;;;9.00;;
9461;SDS011;4769;42.660;23.262;2023-06-04T08:03:26;12.52;;;8.88;;
9461;SDS011;4769;42.660;23.262;2023-06-04T08:05:52;11.50;;;9.15;;
9461;SDS011;4769;42.660;23.262;2023-06-04T08:08:17;9.82;;;8.82;;
9461;SDS011;4769;42.660;23.262;2023-06-04T08:10:46;12.93;;;9.73;;
9461;SDS011;4769;42.660;23.262;2023-06-04T08:13:11;10.85;;;9.45;;
9461;SDS011;4769;42.660;23.262;2023-06-04T08:15:37;12.63;;;9.75;;
9461;SDS011;4769;42.660;23.262;2023-06-04T08:18:03;10.20;;;9.10;;
9461;SDS011;4769;42.660;23.262;2023-06-04T08:20:28;10.43;;;9.38;;
9461;SDS011;4769;42.660;23.262;2023-06-04T08:22:54;10.93;;;9.20;;
9461;SDS011;4769;42.660;23.262;2023-06-04T08:25:20;14.07;;;9.85;;
9461;SDS011;4769;42.660;23.262;2023-06-04T08:27:48;12.35;;;10.95;;
9461;SDS011;4769;42.660;23.262;2023-06-04T08:30:14;11.93;;;9.98;;
9461;SDS011;4769;42.660;23.262;2023-06-04T08:32:40;13.38;;;10.98;;
9461;SDS011;4769;42.660;23.262;2023-06-04T08:35:06;11.75;;;10.55;;
9461;SDS011;4769;42.660;23.262;2023-06-04T08:37:32;17.55;;;10.93;;
9461;SDS011;4769;42.660;23.262;2023-06-04T08:39:58;12.13;;;10.93;;
9461;SDS011;4769;42.660;23.262;2023-06-04T08:42:27;12.63;;;10.93;;
9461;SDS011;4769;42.660;23.262;2023-06-04T08:44:58;15.40;;;12.80;;
9461;SDS011;4769;42.660;23.262;2023-06-04T08:47:24;18.77;;;14.23;;
9461;SDS011;4769;42.660;23.262;2023-06-04T08:49:51;23.33;;;13.10;;
9461;SDS011;4769;42.660;23.262;2023-06-04T08:52:17;13.07;;;11.40;;
9461;SDS011;4769;42.660;23.262;2023-06-04T08:54:43;17.73;;;13.13;;
9461;SDS011;4769;42.660;23.262;2023-06-04T08:57:10;13.55;;;12.13;;
9461;SDS011;4769;42.660;23.262;2023-06-04T08:59:36;14.57;;;11.55;;
9461;SDS011;4769;42.660;23.262;2023-06-04T09:02:04;12.57;;;11.00;;
9461;SDS011;4769;42.660;23.262;2023-06-04T09:04:30;12.13;;;10.82;;
9461;SDS011;4769;42.660;23.262;2023-06-04T09:06:58;13.85;;;11.23;;
9461;SDS011;4769;42.660;23.262;2023-06-04T09:09:27;14.13;;;12.57;;
9461;SDS011;4769;42.660;23.262;2023-06-04T09:11:54;13.82;;;12.32;;
9461;SDS011;4769;42.660;23.262;2023-06-04T09:14:21;23.13;;;11.80;;
9461;SDS011;4769;42.660;23.262;2023-06-04T09:16:47;12.32;;;10.68;;
9461;SDS011;4769;42.660;23.262;2023-06-04T09:19:17;18.00;;;10.95;;
9461;SDS011;4769;42.660;23.262;2023-06-04T09:21:50;14.68;;;9.88;;
9461;SDS011;4769;42.660;23.262;2023-06-04T09:24:16;11.77;;;10.40;;
9461;SDS011;4769;42.660;23.262;2023-06-04T09:26:42;14.55;;;11.35;;
9461;SDS011;4769;42.660;23.262;2023-06-04T09:29:08;12.38;;;11.07;;
9461;SDS011;4769;42.660;23.262;2023-06-04T09:31:34;15.07;;;11.60;;
9461;SDS011;4769;42.660;23.262;2023-06-04T09:34:00;15.52;;;12.50;;
9461;SDS011;4769;42.660;23.262;2023-06-04T09:36:32;12.85;;;11.27;;
9461;SDS011;4769;42.660;23.262;2023-06-04T09:38:58;13.75;;;10.48;;
9461;SDS011;4769;42.660;23.262;2023-06-04T09:41:26;19.05;;;12.00;;
9461;SDS011;4769;42.660;23.262;2023-06-04T09:43:58;14.02;;;10.45;;
9461;SDS011;4769;42.660;23.262;2023-06-04T09:46:24;12.02;;;10.38;;
9461;SDS011;4769;42.660;23.262;2023-06-04T09:48:58;10.45;;;9.45;;
9461;SDS011;4769;42.660;23.262;2023-06-04T09:51:25;11.38;;;9.60;;
9461;SDS011;4769;42.660;23.262;2023-06-04T09:53:56;10.32;;;9.18;;
9461;SDS011;4769;42.660;23.262;2023-06-04T09:56:23;11.98;;;9.45;;
9461;SDS011;4769;42.660;23.262;2023-06-04T09:58:49;16.05;;;9.95;;
9461;SDS011;4769;42.660;23.262;2023-06-04T10:01:18;12.77;;;9.73;;
9461;SDS011;4769;42.660;23.262;2023-06-04T10:03:46;12.73;;;10.45;;
9461;SDS011;4769;42.660;23.262;2023-06-04T10:06:13;12.77;;;9.13;;
9461;SDS011;4769;42.660;23.262;2023-06-04T10:08:40;10.63;;;9.52;;
9461;SDS011;4769;42.660;23.262;2023-06-04T10:11:10;10.30;;;9.18;;
9461;SDS011;4769;42.660;23.262;2023-06-04T10:13:41;12.35;;;10.40;;
9461;SDS011;4769;42.660;23.262;2023-06-04T10:16:17;12.02;;;9.75;;
9461;SDS011;4769;42.660;23.262;2023-06-04T10:18:44;14.13;;;10.40;;
9461;SDS011;4769;42.660;23.262;2023-06-04T10:21:13;12.90;;;10.75;;
9461;SDS011;4769;42.660;23.262;2023-06-04T10:23:39;11.32;;;10.23;;
9461;SDS011;4769;42.660;23.262;2023-06-04T10:26:11;11.13;;;10.05;;
9461;SDS011;4769;42.660;23.262;2023-06-04T10:28:40;11.88;;;10.48;;
9461;SDS011;4769;42.660;23.262;2023-06-04T10:31:09;14.13;;;10.57;;
9461;SDS011;4769;42.660;23.262;2023-06-04T10:33:36;17.33;;;10.35;;
9461;SDS011;4769;42.660;23.262;2023-06-04T10:36:15;12.35;;;9.32;;
9461;SDS011;4769;42.660;23.262;2023-06-04T10:38:45;11.70;;;9.75;;
9461;SDS011;4769;42.660;23.262;2023-06-04T10:41:18;11.60;;;10.40;;
9461;SDS011;4769;42.660;23.262;2023-06-04T10:43:45;11.90;;;10.75;;
9461;SDS011;4769;42.660;23.262;2023-06-04T10:46:11;13.52;;;9.90;;
9461;SDS011;4769;42.660;23.262;2023-06-04T10:48:49;13.05;;;9.80;;
9461;SDS011;4769;42.660;23.262;2023-06-04T10:51:29;13.02;;;9.82;;
9461;SDS011;4769;42.660;23.262;2023-06-04T10:53:55;10.88;;;9.27;;
9461;SDS011;4769;42.660;23.262;2023-06-04T10:56:30;12.07;;;10.02;;
9461;SDS011;4769;42.660;23.262;2023-06-04T10:58:56;11.00;;;9.55;;
9461;SDS011;4769;42.660;23.262;2023-06-04T11:01:26;15.90;;;10.18;;
9461;SDS011;4769;42.660;23.262;2023-06-04T11:03:52;13.52;;;10.25;;
9461;SDS011;4769;42.660;23.262;2023-06-04T11:06:18;11.55;;;9.30;;
9461;SDS011;4769;42.660;23.262;2023-06-04T11:09:01;11.25;;;9.27;;
9461;SDS011;4769;42.660;23.262;2023-06-04T11:11:30;9.73;;;8.80;;
9461;SDS011;4769;42.660;23.262;2023-06-04T11:14:06;12.60;;;9.07;;
9461;SDS011;4769;42.660;23.262;2023-06-04T11:16:33;10.77;;;9.38;;
9461;SDS011;4769;42.660;23.262;2023-06-04T11:18:59;13.30;;;8.98;;
9461;SDS011;4769;42.660;23.262;2023-06-04T11:21:25;15.80;;;9.70;;
9461;SDS011;4769;42.660;23.262;2023-06-04T11:23:54;13.05;;;9.25;;
9461;SDS011;4769;42.660;23.262;2023-06-04T11:26:22;10.65;;;9.30;;
9461;SDS011;4769;42.660;23.262;2023-06-04T11:29:00;9.77;;;8.38;;
9461;SDS011;4769;42.660;23.262;2023-06-04T11:31:27;10.57;;;8.80;;
9461;SDS011;4769;42.660;23.262;2023-06-04T11:33:53;13.13;;;8.43;;
9461;SDS011;4769;42.660;23.262;2023-06-04T11:36:26;12.98;;;8.13;;
9461;SDS011;4769;42.660;23.262;2023-06-04T11:38:58;10.75;;;8.43;;
9461;SDS011;4769;42.660;23.262;2023-06-04T11:41:26;9.98;;;8.35;;
9461;SDS011;4769;42.660;23.262;2023-06-04T11:44:00;8.55;;;7.75;;
9461;SDS011;4769;42.660;23.262;2023-06-04T11:46:27;10.27;;;8.60;;
9461;SDS011;4769;42.660;23.262;2023-06-04T11:48:54;9.85;;;7.95;;
9461;SDS011;4769;42.660;23.262;2023-06-04T11:51:23;9.63;;;8.02;;
9461;SDS011;4769;42.660;23.262;2023-06-04T11:53:55;11.07;;;7.72;;
9461;SDS011;4769;42.660;23.262;2023-06-04T11:56:24;9.32;;;8.43;;
9461;SDS011;4769;42.660;23.262;2023-06-04T11:58:50;9.68;;;8.68;;
9461;SDS011;4769;42.660;23.262;2023-06-04T12:01:23;9.43;;;8.52;;
9461;SDS011;4769;42.660;23.262;2023-06-04T12:03:52;9.52;;;8.02;;
9461;SDS011;4769;42.660;23.262;2023-06-04T12:09:06;9.80;;;8.77;;
9461;SDS011;4769;42.660;23.262;2023-06-04T12:11:33;9.52;;;8.55;;
9461;SDS011;4769;42.660;23.262;2023-06-04T12:14:00;17.63;;;15.80;;
9461;SDS011;4769;42.660;23.262;2023-06-04T12:16:31;12.40;;;11.20;;
9461;SDS011;4769;42.660;23.262;2023-06-04T12:19:07;11.80;;;10.70;;
9461;SDS011;4769;42.660;23.262;2023-06-04T12:21:37;10.55;;;9.55;;
9461;SDS011;4769;42.660;23.262;2023-06-04T12:24:07;11.52;;;9.57;;
9461;SDS011;4769;42.660;23.262;2023-06-04T12:26:34;11.73;;;10.25;;
9461;SDS011;4769;42.660;23.262;2023-06-04T12:29:00;11.93;;;10.15;;
9461;SDS011;4769;42.660;23.262;2023-06-04T12:31:29;12.40;;;11.25;;
9461;SDS011;4769;42.660;23.262;2023-06-04T12:34:01;11.93;;;10.82;;
9461;SDS011;4769;42.660;23.262;2023-06-04T12:36:33;11.93;;;10.82;;
9461;SDS011;4769;42.660;23.262;2023-06-04T12:39:02;11.48;;;10.23;;
9461;SDS011;4769;42.660;23.262;2023-06-04T12:41:33;14.18;;;11.57;;
9461;SDS011;4769;42.660;23.262;2023-06-04T12:44:15;14.80;;;12.00;;
9461;SDS011;4769;42.660;23.262;2023-06-04T12:46:45;12.82;;;11.63;;
9461;SDS011;4769;42.660;23.262;2023-06-04T12:49:17;12.93;;;11.73;;
9461;SDS011;4769;42.660;23.262;2023-06-04T12:51:43;12.80;;;11.60;;
9461;SDS011;4769;42.660;23.262;2023-06-04T12:54:09;12.80;;;11.50;;
9461;SDS011;4769;42.660;23.262;2023-06-04T12:56:43;14.00;;;12.13;;
9461;SDS011;4769;42.660;23.262;2023-06-04T12:59:09;12.07;;;10.85;;
9461;SDS011;4769;42.660;23.262;2023-06-04T13:01:35;10.95;;;9.85;;
9461;SDS011;4769;42.660;23.262;2023-06-04T13:04:03;12.25;;;10.40;;
9461;SDS011;4769;42.660;23.262;2023-06-04T13:06:29;10.88;;;9.90;;
9461;SDS011;4769;42.660;23.262;2023-06-04T13:08:55;11.40;;;10.15;;
9461;SDS011;4769;42.660;23.262;2023-06-04T13:11:20;17.23;;;12.85;;
9461;SDS011;4769;42.660;23.262;2023-06-04T13:13:46;11.55;;;10.48;;
9461;SDS011;4769;42.660;23.262;2023-06-04T13:16:12;12.80;;;10.15;;
9461;SDS011;4769;42.660;23.262;2023-06-04T13:18:38;11.23;;;10.15;;
9461;SDS011;4769;42.660;23.262;2023-06-04T13:21:06;11.40;;;10.23;;
9461;SDS011;4769;42.660;23.262;2023-06-04T13:23:32;11.68;;;10.68;;
9461;SDS011;4769;42.660;23.262;2023-06-04T13:25:57;11.75;;;10.85;;
9461;SDS011;4769;42.660;23.262;2023-06-04T13:28:23;12.23;;;10.65;;
9461;SDS011;4769;42.660;23.262;2023-06-04T13:30:49;10.30;;;9.23;;
9461;SDS011;4769;42.660;23.262;2023-06-04T13:33:15;11.40;;;10.25;;
9461;SDS011;4769;42.660;23.262;2023-06-04T13:35:40;12.60;;;10.43;;
9461;SDS011;4769;42.660;23.262;2023-06-04T13:38:09;10.82;;;9.65;;
9461;SDS011;4769;42.660;23.262;2023-06-04T13:40:34;10.45;;;9.52;;
9461;SDS011;4769;42.660;23.262;2023-06-04T13:43:00;11.77;;;9.70;;
9461;SDS011;4769;42.660;23.262;2023-06-04T13:45:26;11.15;;;9.80;;
9461;SDS011;4769;42.660;23.262;2023-06-04T13:47:51;13.48;;;9.68;;
9461;SDS011;4769;42.660;23.262;2023-06-04T13:50:17;10.80;;;9.23;;
9461;SDS011;4769;42.660;23.262;2023-06-04T13:52:43;9.73;;;8.15;;
9461;SDS011;4769;42.660;23.262;2023-06-04T13:55:11;9.07;;;8.18;;
9461;SDS011;4769;42.660;23.262;2023-06-04T13:57:37;8.80;;;7.95;;
9461;SDS011;4769;42.660;23.262;2023-06-04T14:00:04;8.65;;;7.75;;
9461;SDS011;4769;42.660;23.262;2023-06-04T14:02:30;11.13;;;8.48;;
9461;SDS011;4769;42.660;23.262;2023-06-04T14:04:56;12.98;;;8.75;;
9461;SDS011;4769;42.660;23.262;2023-06-04T14:07:22;10.75;;;7.80;;
9461;SDS011;4769;42.660;23.262;2023-06-04T14:09:47;12.77;;;8.68;;
9461;SDS011;4769;42.660;23.262;2023-06-04T14:12:16;11.48;;;8.10;;
9461;SDS011;4769;42.660;23.262;2023-06-04T14:14:41;10.10;;;7.97;;
9461;SDS011;4769;42.660;23.262;2023-06-04T14:17:07;11.85;;;8.10;;
9461;SDS011;4769;42.660;23.262;2023-06-04T14:19:33;8.93;;;8.05;;
9461;SDS011;4769;42.660;23.262;2023-06-04T14:21:58;10.77;;;9.07;;
9461;SDS011;4769;42.660;23.262;2023-06-04T14:24:24;9.32;;;8.02;;
9461;SDS011;4769;42.660;23.262;2023-06-04T14:26:50;10.23;;;8.23;;
9461;SDS011;4769;42.660;23.262;2023-06-04T14:29:18;10.85;;;8.63;;
9461;SDS011;4769;42.660;23.262;2023-06-04T14:31:44;11.63;;;9.32;;
9461;SDS011;4769;42.660;23.262;2023-06-04T14:34:10;14.55;;;9.00;;
9461;SDS011;4769;42.660;23.262;2023-06-04T14:36:36;9.65;;;8.65;;
9461;SDS011;4769;42.660;23.262;2023-06-04T14:39:02;9.25;;;8.35;;
9461;SDS011;4769;42.660;23.262;2023-06-04T14:41:27;10.18;;;9.00;;
9461;SDS011;4769;42.660;23.262;2023-06-04T14:43:53;10.23;;;9.32;;
9461;SDS011;4769;42.660;23.262;2023-06-04T14:46:22;16.45;;;9.80;;
9461;SDS011;4769;42.660;23.262;2023-06-04T14:48:48;10.55;;;9.40;;